createdAt,value
2022-08-19T00:01:59.009Z,99738.34
2022-08-19T00:04:28.164Z,99726.94
2022-08-19T00:06:54.670Z,99724.31
2022-08-19T00:09:22.485Z,99718.34
2022-08-19T00:11:49.073Z,99718.19
2022-08-19T00:14:16.659Z,99718.03
2022-08-19T00:16:44.191Z,99713.78
2022-08-19T00:19:11.239Z,99720.72
2022-08-19T00:21:40.453Z,99715.88
2022-08-19T00:24:08.776Z,99717.72
2022-08-19T00:26:35.260Z,99726.34
2022-08-19T00:29:02.142Z,99723.41
2022-08-19T00:31:29.034Z,99731.81
2022-08-19T00:33:55.660Z,99732.31
2022-08-19T00:36:22.228Z,99740.16
2022-08-19T00:38:49.557Z,99742.19
2022-08-19T00:41:18.479Z,99738.75
2022-08-19T00:43:57.065Z,99745.75
2022-08-19T00:46:23.542Z,99744.81
2022-08-19T00:48:50.039Z,99749.34
2022-08-19T00:51:16.521Z,99740.03
2022-08-19T00:53:44.555Z,99732.16
2022-08-19T00:56:11.472Z,99734.47
2022-08-19T00:58:38.113Z,99733.25
2022-08-19T01:01:05.070Z,99740.41
2022-08-19T01:03:56.808Z,99733.59
2022-08-19T01:06:19.933Z,99725.50
2022-08-19T01:08:47.433Z,99715.69
2022-08-19T01:11:16.846Z,99708.59
2022-08-19T01:13:48.922Z,99722.00
2022-08-19T01:16:17.608Z,99721.28
2022-08-19T01:18:44.055Z,99727.63
2022-08-19T01:21:16.966Z,99735.13
2022-08-19T01:23:44.407Z,99733.22
2022-08-19T01:26:13.234Z,99729.81
2022-08-19T01:28:41.023Z,99717.53
2022-08-19T01:31:26.341Z,99717.16
2022-08-19T01:33:56.192Z,99723.09
2022-08-19T01:36:24.775Z,99728.28
2022-08-19T01:38:51.266Z,99721.69
2022-08-19T01:41:18.524Z,99732.16
2022-08-19T01:44:13.160Z,99720.44
2022-08-19T01:46:33.137Z,99709.47
2022-08-19T01:49:01.521Z,99714.81
2022-08-19T01:51:28.621Z,99711.47
2022-08-19T01:53:55.303Z,99709.81
2022-08-19T01:56:21.849Z,99711.09
2022-08-19T01:58:52.239Z,99707.53
2022-08-19T02:01:18.860Z,99700.47
2022-08-19T02:03:45.373Z,99695.44
2022-08-19T02:06:12.174Z,99684.97
2022-08-19T02:08:39.452Z,99689.84
2022-08-19T02:11:06.543Z,99697.66
2022-08-19T02:13:33.428Z,99689.03
2022-08-19T02:16:00.061Z,99690.19
2022-08-19T02:18:28.133Z,99684.72
2022-08-19T02:20:54.844Z,99675.66
2022-08-19T02:23:21.295Z,99669.28
2022-08-19T02:25:48.995Z,99670.22
2022-08-19T02:28:18.760Z,99663.97
2022-08-19T02:30:46.109Z,99647.88
2022-08-19T02:33:12.573Z,99646.78
2022-08-19T02:35:41.791Z,99645.88
2022-08-19T02:38:26.409Z,99654.94
2022-08-19T02:40:54.733Z,99658.06
2022-08-19T02:43:21.716Z,99671.31
2022-08-19T02:45:49.330Z,99664.91
2022-08-19T02:48:21.902Z,99668.06
2022-08-19T02:50:53.248Z,99668.97
2022-08-19T02:53:19.957Z,99682.25
2022-08-19T02:55:47.623Z,99682.88
2022-08-19T02:58:14.965Z,99690.03
2022-08-19T03:00:50.618Z,99689.41
2022-08-19T03:03:18.028Z,99695.16
2022-08-19T03:05:48.323Z,99699.75
2022-08-19T03:08:22.847Z,99701.25
2022-08-19T03:10:49.426Z,99707.50
2022-08-19T03:13:17.566Z,99706.44
2022-08-19T03:15:45.338Z,99705.91
2022-08-19T03:18:12.511Z,99704.34
2022-08-19T03:20:43.458Z,99711.53
2022-08-19T03:23:10.008Z,99720.16
2022-08-19T03:25:41.828Z,99725.16
2022-08-19T03:28:08.398Z,99730.22
2022-08-19T03:30:35.115Z,99727.09
2022-08-19T03:33:01.625Z,99714.28
2022-08-19T03:35:28.431Z,99717.63
2022-08-19T03:37:55.035Z,99718.59
2022-08-19T03:40:21.571Z,99716.06
2022-08-19T03:42:49.202Z,99721.41
2022-08-19T03:45:16.151Z,99726.78
2022-08-19T03:47:42.683Z,99719.28
2022-08-19T03:50:10.070Z,99718.37
2022-08-19T03:52:36.974Z,99723.44
2022-08-19T03:55:03.906Z,99725.50
2022-08-19T03:57:31.651Z,99720.78
2022-08-19T04:00:12.584Z,99723.44
2022-08-19T04:02:39.880Z,99729.97
2022-08-19T04:05:06.677Z,99732.72
2022-08-19T04:07:33.307Z,99739.22
2022-08-19T04:10:00.247Z,99744.09
2022-08-19T04:12:26.741Z,99747.41
2022-08-19T04:14:53.227Z,99747.09
2022-08-19T04:17:19.717Z,99752.47
2022-08-19T04:19:46.166Z,99753.06
2022-08-19T04:22:12.652Z,99759.59
2022-08-19T04:24:39.155Z,99773.19
2022-08-19T04:27:07.112Z,99778.31
2022-08-19T04:29:33.701Z,99757.66
2022-08-19T04:32:00.321Z,99768.75
2022-08-19T04:35:16.150Z,99757.78
2022-08-19T04:37:24.231Z,99759.97
2022-08-19T04:40:09.296Z,99765.31
2022-08-19T04:42:45.004Z,99768.31
2022-08-19T04:45:13.898Z,99777.69
2022-08-19T04:47:51.410Z,99768.34
2022-08-19T04:50:26.825Z,99778.78
2022-08-19T04:52:53.542Z,99783.09
2022-08-19T04:55:20.235Z,99777.66
2022-08-19T04:57:46.673Z,99770.34
2022-08-19T05:00:13.373Z,99774.03
2022-08-19T05:02:39.986Z,99767.41
2022-08-19T05:05:07.501Z,99781.66
2022-08-19T05:07:34.153Z,99784.88
2022-08-19T05:10:00.656Z,99778.88
2022-08-19T05:12:29.742Z,99777.09
2022-08-19T05:14:57.808Z,99783.59
2022-08-19T05:17:27.605Z,99781.09
2022-08-19T05:20:13.736Z,99791.84
2022-08-19T05:22:40.352Z,99775.72
2022-08-19T05:25:13.107Z,99780.19
2022-08-19T05:27:40.182Z,99773.50
2022-08-19T05:30:06.898Z,99775.19
2022-08-19T05:32:33.410Z,99783.59
2022-08-19T05:34:59.899Z,99777.94
2022-08-19T05:37:28.615Z,99775.03
2022-08-19T05:39:55.833Z,99778.84
2022-08-19T05:42:23.781Z,99768.06
2022-08-19T05:44:50.608Z,99777.03
2022-08-19T05:47:17.721Z,99778.44
2022-08-19T05:49:44.961Z,99775.53
2022-08-19T05:52:13.005Z,99777.69
2022-08-19T05:54:41.344Z,99783.12
2022-08-19T05:57:08.493Z,99782.00
2022-08-19T05:59:39.137Z,99778.81
2022-08-19T06:02:07.553Z,99779.31
2022-08-19T06:04:34.618Z,99776.59
2022-08-19T06:07:11.949Z,99786.56
2022-08-19T06:09:39.811Z,99793.22
2022-08-19T06:12:06.729Z,99787.50
2022-08-19T06:14:35.557Z,99786.31
2022-08-19T06:17:07.511Z,99781.16
2022-08-19T06:19:34.288Z,99779.50
2022-08-19T06:22:01.255Z,99786.75
2022-08-19T06:24:30.296Z,99783.12
2022-08-19T06:27:00.835Z,99792.44
2022-08-19T06:29:29.062Z,99789.94
2022-08-19T06:31:57.185Z,99777.75
2022-08-19T06:34:23.799Z,99771.53
2022-08-19T06:36:51.533Z,99771.38
2022-08-19T06:39:20.167Z,99771.94
2022-08-19T06:41:51.793Z,99760.03
2022-08-19T06:44:22.189Z,99758.59
2022-08-19T06:46:54.854Z,99766.16
2022-08-19T06:49:21.722Z,99759.84
2022-08-19T06:51:49.443Z,99763.72
2022-08-19T06:54:19.416Z,99778.69
2022-08-19T06:56:46.789Z,99768.06
2022-08-19T06:59:15.309Z,99769.94
2022-08-19T07:01:47.954Z,99775.66
2022-08-19T07:04:22.170Z,99766.31
2022-08-19T07:06:55.047Z,99760.22
2022-08-19T07:09:22.097Z,99756.41
2022-08-19T07:11:53.506Z,99753.78
2022-08-19T07:14:21.117Z,99751.00
2022-08-19T07:16:48.946Z,99765.37
2022-08-19T07:19:16.090Z,99781.97
2022-08-19T07:21:45.254Z,99790.56
2022-08-19T07:24:11.988Z,99796.31
2022-08-19T07:26:42.395Z,99801.34
2022-08-19T07:29:11.075Z,99793.25
2022-08-19T07:31:38.187Z,99801.22
2022-08-19T07:34:09.030Z,99803.97
2022-08-19T07:36:37.295Z,99792.44
2022-08-19T07:39:08.777Z,99799.75
2022-08-19T07:41:36.343Z,99794.16
2022-08-19T07:44:04.750Z,99804.22
2022-08-19T07:46:35.063Z,99797.03
2022-08-19T07:49:01.595Z,99796.19
2022-08-19T07:51:36.164Z,99792.06
2022-08-19T07:54:04.318Z,99789.25
2022-08-19T07:56:30.960Z,99787.31
2022-08-19T07:58:57.516Z,99771.06
2022-08-19T08:01:25.773Z,99776.91
2022-08-19T08:04:11.830Z,99767.75
2022-08-19T08:06:57.156Z,99786.63
2022-08-19T08:09:26.301Z,99780.34
2022-08-19T08:12:01.934Z,99793.13
2022-08-19T08:14:34.986Z,99800.06
2022-08-19T08:17:02.299Z,99803.87
2022-08-19T08:19:29.127Z,99801.56
2022-08-19T08:21:56.766Z,99791.78
2022-08-19T08:24:23.688Z,99801.28
2022-08-19T08:26:57.086Z,99805.31
2022-08-19T08:29:24.430Z,99807.75
2022-08-19T08:31:58.613Z,99808.09
2022-08-19T08:34:26.578Z,99801.88
2022-08-19T08:36:53.150Z,99802.28
2022-08-19T08:39:21.005Z,99802.53
2022-08-19T08:42:00.724Z,99800.66
2022-08-19T08:44:44.169Z,99804.44
2022-08-19T08:47:14.863Z,99796.91
2022-08-19T08:49:51.278Z,99795.72
2022-08-19T08:52:18.141Z,99805.13
2022-08-19T08:54:54.748Z,99806.72
2022-08-19T08:57:25.085Z,99800.56
2022-08-19T08:59:52.894Z,99798.91
2022-08-19T09:02:19.722Z,99777.09
2022-08-19T09:04:46.503Z,99763.53
2022-08-19T09:07:35.834Z,99756.44
2022-08-19T09:10:08.812Z,99758.44
2022-08-19T09:12:39.942Z,99771.84
2022-08-19T09:15:10.779Z,99765.53
2022-08-19T09:17:39.358Z,99772.59
2022-08-19T09:20:09.399Z,99769.97
2022-08-19T09:22:36.614Z,99769.41
2022-08-19T09:25:03.491Z,99763.75
2022-08-19T09:27:41.967Z,99750.44
2022-08-19T09:30:19.184Z,99748.87
2022-08-19T09:32:46.427Z,99751.69
2022-08-19T09:35:13.976Z,99743.22
2022-08-19T09:37:40.714Z,99750.37
2022-08-19T09:40:08.217Z,99752.13
2022-08-19T09:42:35.761Z,99760.56
2022-08-19T09:45:05.150Z,99741.34
2022-08-19T09:47:39.031Z,99740.56
2022-08-19T09:50:08.724Z,99734.53
2022-08-19T09:52:37.498Z,99723.69
2022-08-19T09:55:07.462Z,99714.56
2022-08-19T09:57:34.972Z,99717.84
2022-08-19T10:00:01.784Z,99715.88
2022-08-19T10:02:28.938Z,99708.38
2022-08-19T10:05:14.080Z,99695.78
2022-08-19T10:07:49.653Z,99696.16
2022-08-19T10:10:16.620Z,99692.69
2022-08-19T10:12:48.752Z,99686.47
2022-08-19T10:15:16.084Z,99686.81
2022-08-19T10:17:54.934Z,99697.47
2022-08-19T10:20:22.813Z,99693.94
2022-08-19T10:22:49.306Z,99689.41
2022-08-19T10:25:18.771Z,99687.22
2022-08-19T10:27:47.903Z,99691.16
2022-08-19T10:30:18.172Z,99695.22
2022-08-19T10:32:46.961Z,99687.56
2022-08-19T10:35:13.881Z,99690.63
2022-08-19T10:37:56.838Z,99687.63
2022-08-19T10:40:24.757Z,99691.69
2022-08-19T10:42:51.251Z,99689.81
2022-08-19T10:45:18.038Z,99689.16
2022-08-19T10:47:44.484Z,99680.72
2022-08-19T10:50:30.193Z,99692.12
2022-08-19T10:52:56.674Z,99684.66
2022-08-19T10:55:43.218Z,99692.09
2022-08-19T10:58:14.089Z,99680.28
2022-08-19T11:00:41.482Z,99688.09
2022-08-19T11:03:08.016Z,99680.34
2022-08-19T11:05:39.866Z,99683.31
2022-08-19T11:08:22.955Z,99691.41
2022-08-19T11:10:50.662Z,99693.59
2022-08-19T11:13:17.262Z,99681.97
2022-08-19T11:15:44.110Z,99681.25
2022-08-19T11:18:13.508Z,99687.97
2022-08-19T11:20:40.142Z,99677.62
2022-08-19T11:23:07.442Z,99681.16
2022-08-19T11:25:34.307Z,99679.13
2022-08-19T11:28:00.777Z,99679.38
2022-08-19T11:30:28.547Z,99676.88
2022-08-19T11:32:55.035Z,99687.09
2022-08-19T11:35:22.119Z,99681.59
2022-08-19T11:37:48.733Z,99688.63
2022-08-19T11:40:15.300Z,99679.38
2022-08-19T11:42:57.235Z,99683.25
2022-08-19T11:45:29.003Z,99666.75
2022-08-19T11:47:56.205Z,99668.63
2022-08-19T11:50:24.487Z,99671.50
2022-08-19T11:52:51.863Z,99664.00
2022-08-19T11:55:18.368Z,99663.97
2022-08-19T11:57:44.877Z,99658.44
2022-08-19T12:00:13.647Z,99666.22
2022-08-19T12:02:40.637Z,99652.88
2022-08-19T12:05:12.031Z,99647.34
2022-08-19T12:07:39.500Z,99646.34
2022-08-19T12:10:06.130Z,99652.69
2022-08-19T12:12:32.658Z,99646.50
2022-08-19T12:14:59.470Z,99651.16
2022-08-19T12:17:29.670Z,99657.37
2022-08-19T12:19:56.273Z,99654.03
2022-08-19T12:22:23.108Z,99651.31
2022-08-19T12:24:51.686Z,99650.97
2022-08-19T12:27:32.174Z,99654.09
2022-08-19T12:30:05.621Z,99655.09
2022-08-19T12:32:32.067Z,99652.72
2022-08-19T12:34:58.497Z,99651.94
2022-08-19T12:37:25.005Z,99650.37
2022-08-19T12:39:51.701Z,99649.66
2022-08-19T12:42:18.919Z,99642.31
2022-08-19T12:44:46.351Z,99640.44
2022-08-19T12:47:15.356Z,99638.75
2022-08-19T12:49:53.339Z,99639.03
2022-08-19T12:52:23.550Z,99637.72
2022-08-19T12:54:53.928Z,99634.69
2022-08-19T12:57:21.488Z,99631.00
2022-08-19T12:59:52.730Z,99616.81
2022-08-19T13:02:19.173Z,99623.28
2022-08-19T13:04:45.701Z,99614.38
2022-08-19T13:07:12.562Z,99617.44
2022-08-19T13:09:41.140Z,99609.78
2022-08-19T13:12:08.758Z,99605.94
2022-08-19T13:14:35.792Z,99610.13
2022-08-19T13:17:05.544Z,99607.88
2022-08-19T13:19:32.590Z,99610.59
2022-08-19T13:22:00.331Z,99620.53
2022-08-19T13:24:31.347Z,99606.94
2022-08-19T13:27:00.985Z,99609.66
2022-08-19T13:29:45.981Z,99600.03
2022-08-19T13:32:31.098Z,99595.22
2022-08-19T13:34:57.588Z,99599.53
2022-08-19T13:37:42.101Z,99599.97
2022-08-19T13:40:19.576Z,99600.34
2022-08-19T13:42:55.011Z,99601.28
2022-08-19T13:45:23.205Z,99595.53
2022-08-19T13:47:53.575Z,99600.47
2022-08-19T13:50:25.231Z,99590.06
2022-08-19T13:52:51.726Z,99594.94
2022-08-19T13:55:22.173Z,99590.84
2022-08-19T13:57:53.958Z,99589.22
2022-08-19T14:00:21.200Z,99587.38
2022-08-19T14:02:48.468Z,99595.09
2022-08-19T14:05:16.430Z,99583.16
2022-08-19T14:07:42.924Z,99584.03
2022-08-19T14:10:10.866Z,99579.84
2022-08-19T14:12:37.773Z,99580.09
2022-08-19T14:15:05.327Z,99589.13
2022-08-19T14:17:31.877Z,99586.53
2022-08-19T14:20:10.413Z,99592.28
2022-08-19T14:22:39.089Z,99598.47
2022-08-19T14:25:06.593Z,99603.56
2022-08-19T14:27:36.229Z,99603.53
2022-08-19T14:30:04.079Z,99595.06
2022-08-19T14:32:30.836Z,99605.41
2022-08-19T14:34:57.328Z,99592.75
2022-08-19T14:37:23.828Z,99579.19
2022-08-19T14:39:51.641Z,99581.50
2022-08-19T14:42:18.445Z,99588.84
2022-08-19T14:44:44.923Z,99596.81
2022-08-19T14:47:11.380Z,99599.09
2022-08-19T14:49:41.240Z,99603.38
2022-08-19T14:52:10.327Z,99598.72
2022-08-19T14:54:36.803Z,99603.66
2022-08-19T14:57:03.425Z,99614.19
2022-08-19T14:59:29.921Z,99620.03
2022-08-19T15:01:56.522Z,99635.28
2022-08-19T15:04:23.055Z,99641.91
2022-08-19T15:06:51.621Z,99652.94
2022-08-19T15:09:18.375Z,99648.41
2022-08-19T15:11:44.922Z,99668.38
2022-08-19T15:14:11.485Z,99663.63
2022-08-19T15:16:40.452Z,99679.13
2022-08-19T15:19:06.960Z,99683.44
2022-08-19T15:21:33.784Z,99694.50
2022-08-19T15:24:01.747Z,99692.09
2022-08-19T15:26:32.489Z,99693.00
2022-08-19T15:29:00.393Z,99693.81
2022-08-19T15:31:29.050Z,99689.03
2022-08-19T15:33:58.200Z,99700.00
2022-08-19T15:36:26.242Z,99703.19
2022-08-19T15:38:53.385Z,99697.47
2022-08-19T15:41:25.466Z,99705.22
2022-08-19T15:44:03.722Z,99696.31
2022-08-19T15:46:31.522Z,99691.91
2022-08-19T15:48:59.904Z,99670.69
2022-08-19T15:51:27.851Z,99663.56
2022-08-19T15:53:55.287Z,99651.88
2022-08-19T15:56:25.555Z,99645.16
2022-08-19T15:59:12.405Z,99643.13
2022-08-19T16:01:57.654Z,99644.97
2022-08-19T16:04:43.372Z,99638.78
2022-08-19T16:07:10.349Z,99632.03
2022-08-19T16:09:36.885Z,99631.44
2022-08-19T16:12:04.942Z,99635.84
2022-08-19T16:14:35.477Z,99630.78
2022-08-19T16:17:02.070Z,99632.22
2022-08-19T16:19:28.563Z,99621.97
2022-08-19T16:21:56.343Z,99620.09
2022-08-19T16:24:24.277Z,99623.47
2022-08-19T16:26:50.941Z,99618.41
2022-08-19T16:29:21.995Z,99625.03
2022-08-19T16:32:01.025Z,99619.66
2022-08-19T16:34:29.347Z,99632.47
2022-08-19T16:36:56.095Z,99638.75
2022-08-19T16:39:23.759Z,99652.47
2022-08-19T16:41:51.032Z,99654.56
2022-08-19T16:44:20.898Z,99660.19
2022-08-19T16:46:58.549Z,99679.56
2022-08-19T16:49:53.884Z,99692.84
2022-08-19T16:52:13.023Z,99707.06
2022-08-19T16:54:41.686Z,99719.87
2022-08-19T16:57:11.691Z,99730.53
2022-08-19T16:59:39.506Z,99736.38
2022-08-19T17:02:15.242Z,99749.81
2022-08-19T17:04:41.802Z,99768.47
2022-08-19T17:07:09.785Z,99772.56
2022-08-19T17:09:36.732Z,99757.03
2022-08-19T17:12:04.673Z,99741.97
2022-08-19T17:14:31.233Z,99709.03
2022-08-19T17:16:57.714Z,99712.75
2022-08-19T17:19:24.162Z,99697.66
2022-08-19T17:21:50.601Z,99688.03
2022-08-19T17:24:17.168Z,99665.91
2022-08-19T17:26:43.968Z,99656.84
2022-08-19T17:29:10.473Z,99643.97
2022-08-19T17:31:36.953Z,99625.47
2022-08-19T17:34:03.687Z,99634.03
2022-08-19T17:36:32.968Z,99629.34
2022-08-19T17:39:00.687Z,99621.56
2022-08-19T17:41:27.920Z,99613.00
2022-08-19T17:43:54.652Z,99599.25
2022-08-19T17:46:21.348Z,99595.53
2022-08-19T17:48:54.663Z,99577.34
2022-08-19T17:51:23.397Z,99567.66
2022-08-19T17:53:51.398Z,99574.56
2022-08-19T17:56:18.046Z,99574.56
2022-08-19T17:58:46.621Z,99584.00
2022-08-19T18:01:27.559Z,99580.72
2022-08-19T18:04:07.325Z,99589.94
2022-08-19T18:06:36.361Z,99602.38
2022-08-19T18:09:05.985Z,99609.91
2022-08-19T18:11:32.857Z,99625.16
2022-08-19T18:13:59.407Z,99639.50
2022-08-19T18:16:26.199Z,99679.53
2022-08-19T18:18:53.908Z,99724.94
2022-08-19T18:21:21.940Z,99770.66
2022-08-19T18:23:48.766Z,99805.81
2022-08-19T18:26:15.238Z,99843.00
2022-08-19T18:28:49.993Z,99877.63
2022-08-19T18:31:17.379Z,99901.91
2022-08-19T18:33:44.593Z,99915.31
2022-08-19T18:36:11.349Z,99907.09
2022-08-19T18:38:56.258Z,99907.53
2022-08-19T18:41:41.085Z,99901.87
2022-08-19T18:44:25.905Z,99910.37
2022-08-19T18:47:13.736Z,99899.91
2022-08-19T18:49:40.544Z,99874.84
2022-08-19T18:52:07.103Z,99862.56
2022-08-19T18:54:34.476Z,99860.62
2022-08-19T18:57:03.451Z,99856.56
2022-08-19T18:59:30.214Z,99856.69
2022-08-19T19:01:58.465Z,99852.75
2022-08-19T19:04:36.220Z,99842.53
2022-08-19T19:07:04.982Z,99843.38
2022-08-19T19:09:31.598Z,99835.56
2022-08-19T19:11:59.795Z,99834.25
2022-08-19T19:14:48.061Z,99831.97
2022-08-19T19:17:15.952Z,99821.28
2022-08-19T19:19:43.027Z,99822.44
2022-08-19T19:22:13.915Z,99811.41
2022-08-19T19:24:44.304Z,99794.87
2022-08-19T19:27:12.941Z,99776.31
2022-08-19T19:29:40.096Z,99769.81
2022-08-19T19:32:11.317Z,99754.72
2022-08-19T19:34:38.641Z,99742.75
2022-08-19T19:37:05.191Z,99732.78
2022-08-19T19:39:44.937Z,99733.87
2022-08-19T19:42:20.381Z,99737.38
2022-08-19T19:44:49.277Z,99750.88
2022-08-19T19:47:16.141Z,99745.62
2022-08-19T19:50:03.977Z,99722.91
2022-08-19T19:52:29.675Z,99704.78
2022-08-19T19:54:56.942Z,99691.13
2022-08-19T19:57:23.772Z,99692.06
2022-08-19T19:59:51.437Z,99705.91
2022-08-19T20:02:18.308Z,99705.28
2022-08-19T20:04:45.072Z,99746.38
2022-08-19T20:07:11.566Z,99896.53
2022-08-19T20:09:56.688Z,99954.31
2022-08-19T20:12:24.769Z,99958.56
2022-08-19T20:14:51.334Z,99949.25
2022-08-19T20:17:20.623Z,99997.91
2022-08-19T20:19:47.959Z,100014.31
2022-08-19T20:22:14.614Z,100004.72
2022-08-19T20:24:42.697Z,100022.53
2022-08-19T20:27:10.749Z,100016.94
2022-08-19T20:29:41.504Z,100026.16
2022-08-19T20:32:11.521Z,100040.00
2022-08-19T20:34:39.263Z,100076.53
2022-08-19T20:37:11.779Z,100069.47
2022-08-19T20:39:38.378Z,100057.03
2022-08-19T20:42:05.388Z,100057.31
2022-08-19T20:44:31.883Z,100076.69
2022-08-19T20:47:02.949Z,100074.53
2022-08-19T20:49:30.231Z,100082.25
2022-08-19T20:51:56.890Z,100067.97
2022-08-19T20:54:24.146Z,100070.81
2022-08-19T20:56:51.100Z,100079.03
2022-08-19T20:59:17.776Z,100065.00
2022-08-19T21:01:44.273Z,100047.41
2022-08-19T21:04:10.817Z,100019.00
2022-08-19T21:06:38.585Z,100016.34
2022-08-19T21:09:08.706Z,100021.53
2022-08-19T21:11:36.118Z,99992.03
2022-08-19T21:14:02.903Z,99961.56
2022-08-19T21:16:29.438Z,99940.44
2022-08-19T21:18:55.938Z,99934.81
2022-08-19T21:21:22.425Z,99924.00
2022-08-19T21:23:49.629Z,99914.72
2022-08-19T21:26:16.230Z,99902.53
2022-08-19T21:28:42.721Z,99909.37
2022-08-19T21:31:10.594Z,99905.88
2022-08-19T21:33:37.551Z,99923.03
2022-08-19T21:36:04.417Z,99913.59
2022-08-19T21:38:31.118Z,99912.06
2022-08-19T21:40:57.602Z,99902.63
2022-08-19T21:43:24.145Z,99895.44
2022-08-19T21:45:51.097Z,99884.34
2022-08-19T21:48:17.838Z,99890.56
2022-08-19T21:50:45.989Z,99878.25
2022-08-19T21:53:17.437Z,99853.63
2022-08-19T21:55:44.413Z,99843.03
2022-08-19T21:58:11.810Z,99834.91
2022-08-19T22:00:38.671Z,99840.66
2022-08-19T22:03:05.378Z,99850.66
2022-08-19T22:05:33.349Z,99837.16
2022-08-19T22:08:01.037Z,99830.28
2022-08-19T22:10:29.071Z,99811.66
2022-08-19T22:12:56.270Z,99812.81
2022-08-19T22:15:23.892Z,99789.72
2022-08-19T22:17:51.199Z,99772.03
2022-08-19T22:20:20.254Z,99757.03
2022-08-19T22:22:52.082Z,99767.13
2022-08-19T22:25:30.224Z,99770.34
2022-08-19T22:28:00.414Z,99748.87
2022-08-19T22:30:28.097Z,99725.38
2022-08-19T22:33:01.362Z,99709.78
2022-08-19T22:35:31.324Z,99709.94
2022-08-19T22:37:59.006Z,99706.06
2022-08-19T22:40:26.416Z,99701.50
2022-08-19T22:43:07.169Z,99698.94
2022-08-19T22:45:35.229Z,99691.53
2022-08-19T22:48:02.270Z,99683.41
2022-08-19T22:50:28.750Z,99680.97
2022-08-19T22:52:58.967Z,99675.00
2022-08-19T22:55:26.660Z,99670.38
2022-08-19T22:57:53.499Z,99653.22
2022-08-19T23:00:21.467Z,99648.47
2022-08-19T23:02:52.142Z,99654.12
2022-08-19T23:05:21.769Z,99657.16
2022-08-19T23:07:52.689Z,99661.66
2022-08-19T23:10:27.368Z,99660.09
2022-08-19T23:12:56.346Z,99660.00
2022-08-19T23:15:25.960Z,99669.62
2022-08-19T23:17:54.025Z,99673.91
2022-08-19T23:20:21.001Z,99676.88
2022-08-19T23:22:49.732Z,99668.59
2022-08-19T23:25:18.112Z,99673.59
2022-08-19T23:28:03.559Z,99688.31
2022-08-19T23:30:31.674Z,99687.44
2022-08-19T23:32:58.303Z,99688.50
2022-08-19T23:35:26.404Z,99682.53
2022-08-19T23:37:53.096Z,99681.06
2022-08-19T23:40:22.040Z,99677.59
2022-08-19T23:42:49.971Z,99681.94
2022-08-19T23:45:18.104Z,99676.13
2022-08-19T23:47:50.236Z,99676.81
2022-08-19T23:50:17.549Z,99677.81
2022-08-19T23:52:49.702Z,99683.31
2022-08-19T23:55:17.170Z,99678.47
2022-08-19T23:57:43.857Z,99680.78
